Time;durP1;ratioP1;P1;durP2;ratioP2;P2;SDS_P1;SDS_P2;PMS_P1;PMS_P2;Temp;Humidity;BMP_temperature;BMP_pressure;BME280_temperature;BME280_humidity;BME280_pressure;Samples;Min_cycle;Max_cycle;Signal;HPM_P1;HPM_P2
2022/06/30 00:00:05;;;;;;;15.10;11.85;;;;;;;19.49;80.94;101001.91;5073038;28;20035;-72
2022/06/30 00:02:30;;;;;;;14.23;12.50;;;;;;;19.48;81.15;100997.59;5072228;28;20503;-72
2022/06/30 00:04:56;;;;;;;15.52;12.07;;;;;;;19.47;82.22;100999.38;5065801;28;20033;-72
2022/06/30 00:07:21;;;;;;;16.73;11.90;;;;;;;19.41;81.57;101005.03;5070298;28;20066;-71
2022/06/30 00:09:46;;;;;;;14.23;11.32;;;;;;;19.35;82.46;100995.66;5071679;28;20024;-72
2022/06/30 00:12:12;;;;;;;13.13;11.75;;;;;;;19.27;82.42;101004.97;5072594;28;20399;-72
2022/06/30 00:14:37;;;;;;;16.13;11.45;;;;;;;19.23;82.66;100999.00;5071234;28;20122;-72
2022/06/30 00:17:03;;;;;;;13.73;11.45;;;;;;;19.11;83.12;100994.41;5071949;28;20058;-72
2022/06/30 00:19:28;;;;;;;15.05;11.75;;;;;;;19.01;84.10;100983.53;5060192;28;20035;-71
2022/06/30 00:21:54;;;;;;;15.73;12.18;;;;;;;18.89;86.00;100981.56;5072169;28;20112;-72
2022/06/30 00:24:19;;;;;;;15.50;12.60;;;;;;;18.82;87.18;100986.34;5070889;28;20151;-72
2022/06/30 00:26:44;;;;;;;12.68;11.18;;;;;;;18.78;87.54;100984.81;5071200;28;20055;-72
2022/06/30 00:29:11;;;;;;;13.40;11.40;;;;;;;18.71;87.72;100971.06;5072241;28;20040;-72
2022/06/30 00:31:37;;;;;;;14.63;12.38;;;;;;;18.60;88.46;100977.84;5072283;28;20024;-72
2022/06/30 00:34:02;;;;;;;13.68;12.25;;;;;;;18.54;88.50;100973.78;5070945;28;20028;-72
2022/06/30 00:36:28;;;;;;;14.43;11.57;;;;;;;18.54;88.48;100972.91;5071754;28;20043;-72
2022/06/30 00:38:53;;;;;;;16.67;12.23;;;;;;;18.48;88.94;100969.69;5071015;28;20025;-72
2022/06/30 00:41:18;;;;;;;13.68;12.30;;;;;;;18.48;88.32;100974.97;5072048;28;20048;-71
2022/06/30 00:43:45;;;;;;;13.73;12.30;;;;;;;18.48;88.10;100980.25;5069800;28;20063;-72
2022/06/30 00:46:11;;;;;;;17.23;12.63;;;;;;;18.46;87.97;100986.53;5071459;28;20040;-72
2022/06/30 00:48:37;;;;;;;16.35;11.50;;;;;;;18.44;88.41;100989.28;5062309;28;20082;-72
2022/06/30 00:51:04;;;;;;;13.45;11.57;;;;;;;18.42;88.32;100985.84;5071470;28;20024;-72
2022/06/30 00:53:34;;;;;;;13.23;11.32;;;;;;;18.42;88.35;100988.50;5071802;28;20024;-72
2022/06/30 00:56:01;;;;;;;12.90;10.88;;;;;;;18.32;89.09;100979.34;5059312;28;20079;-72
2022/06/30 00:58:29;;;;;;;14.05;11.27;;;;;;;18.34;88.75;100988.03;5062403;28;20153;-72
2022/06/30 01:00:55;;;;;;;12.60;11.30;;;;;;;18.29;89.41;100984.81;5071280;28;20031;-72
2022/06/30 01:03:22;;;;;;;12.73;11.32;;;;;;;18.32;89.13;100986.44;5071954;28;20476;-71
2022/06/30 01:05:47;;;;;;;11.90;10.70;;;;;;;18.30;89.76;100988.28;5067447;28;20476;-72
2022/06/30 01:08:16;;;;;;;13.95;11.45;;;;;;;18.17;89.43;100975.75;5071136;28;20080;-71
2022/06/30 01:13:27;;;;;;;13.52;11.43;;;;;;;18.09;88.65;100971.81;5059643;28;20044;-71
2022/06/30 01:15:52;;;;;;;16.27;11.50;;;;;;;18.04;89.15;100985.22;5070281;28;20394;-72
2022/06/30 01:18:17;;;;;;;14.80;11.70;;;;;;;17.97;89.08;100983.84;5071785;28;20020;-71
2022/06/30 01:20:43;;;;;;;12.40;11.10;;;;;;;18.00;88.89;100989.81;5071045;28;20021;-72
2022/06/30 01:23:08;;;;;;;13.60;10.80;;;;;;;17.97;89.62;100989.97;5069712;28;20478;-72
2022/06/30 01:25:34;;;;;;;12.65;11.32;;;;;;;17.90;89.51;100985.09;5069724;28;20024;-71
2022/06/30 01:28:00;;;;;;;13.73;11.25;;;;;;;17.90;89.51;100993.88;5071513;28;20024;-72
2022/06/30 01:30:26;;;;;;;12.95;10.45;;;;;;;17.86;89.91;100996.75;5071638;28;20029;-71
2022/06/30 01:32:51;;;;;;;11.68;10.48;;;;;;;17.82;89.88;100990.78;5070779;28;20073;-72
2022/06/30 01:35:17;;;;;;;12.20;10.13;;;;;;;17.82;90.31;100996.06;5064216;28;20021;-72
2022/06/30 01:38:02;;;;;;;13.40;11.30;;;;;;;17.79;89.32;101001.50;5072155;28;20040;-72
2022/06/30 01:40:35;;;;;;;13.85;11.15;;;;;;;17.75;90.24;100995.47;5073728;28;20071;-71
2022/06/30 01:43:02;;;;;;;12.77;10.90;;;;;;;17.72;90.49;101003.56;5071593;28;20066;-72
2022/06/30 01:45:28;;;;;;;11.30;10.20;;;;;;;17.66;90.61;100995.94;5057883;28;20036;-71
2022/06/30 01:47:53;;;;;;;13.82;11.55;;;;;;;17.56;91.11;100999.97;5059106;28;20021;-71
2022/06/30 01:50:21;;;;;;;14.00;10.82;;;;;;;17.59;91.79;101005.06;5072573;28;20021;-72
2022/06/30 01:52:47;;;;;;;12.40;10.80;;;;;;;17.51;91.83;100996.72;5067850;28;20492;-72
2022/06/30 01:55:13;;;;;;;14.25;11.15;;;;;;;17.50;92.49;101001.13;5073761;28;20025;-72
2022/06/30 01:57:39;;;;;;;13.45;10.93;;;;;;;17.52;91.90;101001.91;5074723;28;20052;-72
2022/06/30 02:00:07;;;;;;;12.70;11.32;;;;;;;17.46;92.23;100993.44;5069160;28;20048;-71
2022/06/30 02:02:33;;;;;;;16.02;10.75;;;;;;;17.45;92.27;100995.22;5066863;28;20033;-71
2022/06/30 02:04:59;;;;;;;13.18;11.25;;;;;;;17.42;92.36;101000.66;5066150;28;20384;-71
2022/06/30 02:07:24;;;;;;;13.32;10.68;;;;;;;17.38;92.75;101004.38;5075360;28;20036;-71
2022/06/30 02:09:53;;;;;;;12.23;11.02;;;;;;;17.29;92.67;101008.31;5074135;28;20083;-72
2022/06/30 02:15:05;;;;;;;18.00;11.43;;;;;;;17.22;93.70;101011.31;5064500;28;20036;-72
2022/06/30 02:17:31;;;;;;;12.30;11.10;;;;;;;17.23;93.60;101005.09;5065867;28;20035;-72
2022/06/30 02:19:56;;;;;;;12.00;10.88;;;;;;;17.23;93.67;101015.66;5059523;28;20028;-71
2022/06/30 02:22:21;;;;;;;12.23;10.75;;;;;;;17.22;93.17;101019.22;5074609;28;20044;-71
2022/06/30 02:24:47;;;;;;;12.27;10.95;;;;;;;17.19;93.10;101014.94;5073390;28;20036;-72
2022/06/30 02:27:12;;;;;;;14.60;10.80;;;;;;;17.15;93.12;101018.66;5074681;28;20070;-72
2022/06/30 02:29:38;;;;;;;12.13;10.85;;;;;;;17.09;93.49;101026.84;5073974;28;20039;-71
2022/06/30 02:32:04;;;;;;;12.50;11.20;;;;;;;17.06;94.20;101027.84;5074419;28;20028;-72
2022/06/30 02:34:29;;;;;;;12.20;10.85;;;;;;;17.04;93.98;101015.69;5073022;28;20036;-71
2022/06/30 02:36:56;;;;;;;19.38;11.88;;;;;;;16.99;93.69;101010.63;5071173;28;20392;-71
2022/06/30 02:39:21;;;;;;;13.00;11.65;;;;;;;16.98;93.40;101018.63;5074263;28;20387;-72
2022/06/30 02:41:47;;;;;;;14.18;11.68;;;;;;;16.98;93.93;101011.56;5073522;28;20095;-71
2022/06/30 02:44:12;;;;;;;13.38;12.00;;;;;;;16.91;93.62;101006.69;5072137;28;20033;-71
2022/06/30 02:46:38;;;;;;;14.23;12.68;;;;;;;16.93;93.02;101010.06;5073519;28;20032;-71
2022/06/30 02:49:03;;;;;;;15.35;12.02;;;;;;;16.82;93.70;100989.53;5074243;28;20111;-71
2022/06/30 02:51:28;;;;;;;14.05;11.75;;;;;;;16.87;93.49;101010.34;5066276;28;20078;-71
2022/06/30 02:53:53;;;;;;;13.23;11.82;;;;;;;16.87;94.25;101005.09;5067347;28;20100;-71
2022/06/30 02:56:19;;;;;;;14.45;11.88;;;;;;;16.86;94.12;101009.50;5070689;28;20496;-72
2022/06/30 02:58:44;;;;;;;13.40;12.05;;;;;;;16.79;94.05;101008.09;5072466;28;20039;-72
2022/06/30 03:01:10;;;;;;;12.43;11.13;;;;;;;16.72;94.13;100994.34;5074034;28;20136;-72
2022/06/30 03:03:36;;;;;;;13.85;11.55;;;;;;;16.70;93.74;100995.31;5074116;28;20547;-71
2022/06/30 03:06:01;;;;;;;13.77;11.95;;;;;;;16.71;93.68;101007.56;5071879;28;20470;-72
2022/06/30 03:08:26;;;;;;;13.38;11.90;;;;;;;16.72;93.30;101001.38;5074257;28;20039;-71
2022/06/30 03:10:52;;;;;;;13.15;11.75;;;;;;;16.62;93.88;100993.91;5073267;28;20111;-71
2022/06/30 03:13:17;;;;;;;12.60;11.32;;;;;;;16.63;94.09;100998.22;5073774;28;20482;-71
2022/06/30 03:15:42;;;;;;;13.18;11.65;;;;;;;16.53;94.37;100991.69;5071699;28;20538;-71
2022/06/30 03:18:07;;;;;;;13.35;11.88;;;;;;;16.53;94.43;101004.84;5073231;28;20016;-71
2022/06/30 03:20:33;;;;;;;15.23;12.48;;;;;;;16.53;94.91;101001.38;5073288;28;20046;-71
2022/06/30 03:22:58;;;;;;;14.60;11.98;;;;;;;16.42;94.75;100988.72;5073681;28;20025;-71
2022/06/30 03:25:23;;;;;;;13.63;12.25;;;;;;;16.47;94.42;100994.59;5072018;28;20410;-71
2022/06/30 03:27:49;;;;;;;15.35;13.38;;;;;;;16.47;94.69;100996.38;5072909;28;20052;-71
2022/06/30 03:30:14;;;;;;;15.55;12.52;;;;;;;16.42;94.30;101004.50;5073745;28;20024;-71
2022/06/30 03:32:39;;;;;;;14.27;12.88;;;;;;;16.35;94.81;101001.28;5072999;28;20043;-71
2022/06/30 03:35:06;;;;;;;15.88;13.80;;;;;;;16.31;95.29;100998.84;5069990;28;20112;-72
2022/06/30 03:37:31;;;;;;;14.93;13.07;;;;;;;16.28;95.97;101001.59;5073618;28;20020;-71
2022/06/30 03:39:57;;;;;;;14.90;13.25;;;;;;;16.29;96.46;100996.28;5071793;28;20043;-71
2022/06/30 03:42:23;;;;;;;14.88;13.35;;;;;;;16.30;95.66;100990.09;5059892;28;20029;-71
2022/06/30 03:44:49;;;;;;;14.48;12.98;;;;;;;16.32;95.50;100995.31;5069466;28;20032;-71
2022/06/30 03:47:15;;;;;;;17.20;13.70;;;;;;;16.30;95.75;100990.09;5070889;28;20038;-71
2022/06/30 03:49:40;;;;;;;15.20;13.57;;;;;;;16.31;95.35;100990.94;5073099;28;20024;-71
2022/06/30 03:52:05;;;;;;;15.60;13.25;;;;;;;16.25;95.54;100999.13;5060161;28;20366;-71
2022/06/30 03:54:31;;;;;;;15.13;12.95;;;;;;;16.22;96.17;100991.34;5070593;28;20028;-71
2022/06/30 03:56:56;;;;;;;13.65;12.27;;;;;;;16.25;96.06;100985.97;5071046;28;20041;-71
2022/06/30 03:59:21;;;;;;;17.65;12.75;;;;;;;16.29;95.91;100982.28;5072938;28;20123;-71
2022/06/30 04:01:46;;;;;;;19.88;13.65;;;;;;;16.29;95.87;100979.66;5071694;28;20040;-71
2022/06/30 04:04:12;;;;;;;13.95;12.02;;;;;;;16.27;95.43;100990.25;5072795;28;20024;-71
2022/06/30 04:06:37;;;;;;;13.88;12.10;;;;;;;16.29;96.12;100983.13;5070962;28;20384;-71
2022/06/30 04:09:02;;;;;;;17.48;12.57;;;;;;;16.34;95.77;100985.56;5072165;28;20373;-71
2022/06/30 04:11:28;;;;;;;31.35;16.10;;;;;;;16.30;96.33;100976.09;5072496;28;20096;-71
2022/06/30 04:13:53;;;;;;;16.48;12.95;;;;;;;16.35;95.72;100992.53;5071522;28;20035;-71
2022/06/30 04:16:18;;;;;;;17.52;12.05;;;;;;;16.39;95.84;100980.94;5060138;28;20032;-71
2022/06/30 04:18:44;;;;;;;14.68;12.15;;;;;;;16.37;95.98;100985.41;5072187;28;20028;-71
2022/06/30 04:21:09;;;;;;;15.77;12.70;;;;;;;16.35;96.40;101005.69;5072854;28;20031;-71
2022/06/30 04:23:35;;;;;;;12.98;11.68;;;;;;;16.44;96.91;100999.16;5070799;28;20426;-71
2022/06/30 04:26:00;;;;;;;15.30;11.82;;;;;;;16.45;97.50;101011.38;5063257;28;20029;-71
2022/06/30 04:28:26;;;;;;;16.17;12.18;;;;;;;16.51;98.04;101003.19;5062068;28;20069;-71
2022/06/30 04:33:35;;;;;;;17.13;11.93;;;;;;;16.63;96.92;101005.28;5072466;28;20071;-71
2022/06/30 04:36:00;;;;;;;22.58;12.73;;;;;;;16.63;96.45;101040.34;5062313;28;20075;-72
2022/06/30 04:38:25;;;;;;;14.48;11.90;;;;;;;16.68;96.43;101039.31;5058795;28;20087;-71
2022/06/30 04:43:35;;;;;;;20.25;13.38;;;;;;;16.77;96.68;101042.38;5071466;28;20545;-72
2022/06/30 04:46:00;;;;;;;20.27;14.45;;;;;;;16.84;95.66;101033.28;5069795;28;20032;-72
2022/06/30 04:48:25;;;;;;;17.05;15.32;;;;;;;16.85;94.52;101031.50;5072204;28;20081;-72
2022/06/30 04:50:51;;;;;;;17.90;16.00;;;;;;;16.88;94.58;101060.34;5068636;28;20037;-72
2022/06/30 04:53:16;;;;;;;17.77;15.90;;;;;;;16.91;95.61;101038.28;5060371;28;20066;-71
2022/06/30 04:55:41;;;;;;;18.35;16.45;;;;;;;16.97;95.09;101040.59;5070654;28;20356;-72
2022/06/30 04:58:06;;;;;;;19.52;17.05;;;;;;;16.99;94.75;101046.66;5071597;28;20115;-71
2022/06/30 05:00:32;;;;;;;21.83;19.08;;;;;;;17.04;94.75;101042.88;5072062;28;20051;-72
2022/06/30 05:02:57;;;;;;;21.40;18.90;;;;;;;17.03;94.49;101043.78;5071745;28;20386;-72
2022/06/30 05:05:23;;;;;;;24.73;21.50;;;;;;;17.06;92.78;101051.56;5070175;28;20135;-71
2022/06/30 05:07:48;;;;;;;24.77;20.83;;;;;;;17.06;92.31;101043.66;5062142;28;20045;-72
2022/06/30 05:10:13;;;;;;;24.83;22.42;;;;;;;17.02;93.56;101041.25;5072187;28;20035;-71
2022/06/30 05:12:39;;;;;;;26.85;22.13;;;;;;;17.01;94.17;101042.19;5070281;28;20057;-72
2022/06/30 05:15:05;;;;;;;25.85;22.15;;;;;;;17.12;93.84;101037.25;5070496;28;20094;-72
2022/06/30 05:17:33;;;;;;;26.63;22.55;;;;;;;17.15;93.16;101038.88;5070753;28;20555;-72
2022/06/30 05:19:58;;;;;;;26.83;22.17;;;;;;;17.19;93.33;101054.47;5070629;28;20016;-72
2022/06/30 05:22:23;;;;;;;25.30;22.67;;;;;;;17.24;93.04;101041.94;5071802;28;20383;-71
2022/06/30 05:27:34;;;;;;;23.27;20.80;;;;;;;17.37;92.79;101050.09;5056531;28;20040;-71
2022/06/30 05:30:00;;;;;;;27.52;22.95;;;;;;;17.42;93.02;101040.19;5068181;28;20024;-72
2022/06/30 05:32:25;;;;;;;24.95;21.98;;;;;;;17.48;92.97;101039.88;5071168;28;20376;-72
2022/06/30 05:34:51;;;;;;;26.05;22.42;;;;;;;17.50;92.46;101045.94;5067740;28;20028;-72
2022/06/30 05:37:16;;;;;;;26.10;21.13;;;;;;;17.57;92.66;101038.59;5070960;28;20534;-71
2022/06/30 05:39:41;;;;;;;24.30;21.75;;;;;;;17.60;92.17;101050.78;5071009;28;20048;-71
2022/06/30 05:42:07;;;;;;;24.25;20.65;;;;;;;17.62;91.28;101040.97;5071145;28;20017;-72
2022/06/30 05:44:32;;;;;;;27.02;21.63;;;;;;;17.67;89.90;101046.91;5069914;28;20477;-71
2022/06/30 05:46:58;;;;;;;20.77;18.55;;;;;;;17.70;89.87;101052.00;5070557;28;20090;-71
2022/06/30 05:49:24;;;;;;;24.38;18.17;;;;;;;17.63;87.51;101051.47;5071393;28;20091;-72
2022/06/30 05:51:49;;;;;;;19.58;16.88;;;;;;;17.62;89.41;101052.38;5060224;28;20029;-72
2022/06/30 05:54:15;;;;;;;17.48;15.63;;;;;;;17.65;89.17;101052.22;5064245;28;20052;-72
2022/06/30 05:56:40;;;;;;;20.83;15.50;;;;;;;17.69;88.48;101050.28;5066072;28;20500;-72
2022/06/30 05:59:06;;;;;;;16.98;15.00;;;;;;;17.71;89.18;101054.56;5065551;28;20109;-71
2022/06/30 06:01:31;;;;;;;20.05;14.98;;;;;;;17.71;87.53;101048.44;5070386;28;20033;-72
2022/06/30 06:03:56;;;;;;;18.38;14.48;;;;;;;17.76;88.27;101055.22;5070595;28;20056;-71
2022/06/30 06:06:22;;;;;;;20.42;14.73;;;;;;;17.79;88.32;101046.31;5057584;28;20017;-72
2022/06/30 06:08:47;;;;;;;18.92;14.27;;;;;;;17.82;87.30;101054.09;5067406;28;20055;-72
2022/06/30 06:11:12;;;;;;;17.33;13.50;;;;;;;17.88;87.32;101059.03;5071222;28;20447;-71
2022/06/30 06:13:38;;;;;;;16.25;14.38;;;;;;;17.95;87.50;101059.56;5070966;28;20048;-72
2022/06/30 06:16:03;;;;;;;16.30;13.07;;;;;;;18.00;87.13;101055.75;5070318;28;20140;-72
2022/06/30 06:18:28;;;;;;;14.75;12.05;;;;;;;18.06;87.56;101054.59;5071288;28;20412;-72
2022/06/30 06:20:54;;;;;;;15.60;12.10;;;;;;;18.07;86.87;101048.38;5070084;28;20032;-72
2022/06/30 06:23:19;;;;;;;15.73;11.07;;;;;;;18.21;86.96;101063.50;5071290;28;20028;-72
2022/06/30 06:25:44;;;;;;;16.45;11.45;;;;;;;18.28;85.88;101067.56;5074435;28;20024;-72
2022/06/30 06:30:54;;;;;;;19.38;11.80;;;;;;;18.41;87.06;101071.25;5073501;28;20504;-77
2022/06/30 06:33:19;;;;;;;16.48;11.45;;;;;;;18.40;87.11;101072.16;5073303;28;20103;-77
2022/06/30 06:35:44;;;;;;;17.63;11.77;;;;;;;18.47;86.16;101076.22;5068904;28;20017;-77
2022/06/30 06:38:10;;;;;;;16.55;10.75;;;;;;;18.56;85.65;101085.41;5068679;28;20447;-76
2022/06/30 06:40:35;;;;;;;17.13;11.40;;;;;;;18.54;84.40;101081.16;5065247;28;20530;-76
2022/06/30 06:43:00;;;;;;;15.20;11.20;;;;;;;18.56;84.72;101084.56;5073946;28;20063;-76
2022/06/30 06:45:26;;;;;;;15.48;10.77;;;;;;;18.58;84.73;101082.72;5061515;28;20042;-76
2022/06/30 06:47:51;;;;;;;14.80;10.13;;;;;;;18.64;86.29;101083.25;5054496;28;20388;-77
2022/06/30 06:50:16;;;;;;;16.95;10.68;;;;;;;18.71;85.79;101081.13;5062903;28;20028;-76
2022/06/30 06:52:41;;;;;;;12.77;9.50;;;;;;;18.75;86.20;101082.69;5060059;28;20021;-76
2022/06/30 06:55:07;;;;;;;12.18;9.60;;;;;;;18.78;86.03;101087.81;5073232;28;20484;-76
2022/06/30 06:57:34;;;;;;;13.88;9.60;;;;;;;18.83;86.17;101098.13;5062682;28;20461;-75
2022/06/30 07:00:00;;;;;;;14.27;9.70;;;;;;;18.88;84.97;101089.00;5074113;28;20434;-76
2022/06/30 07:02:25;;;;;;;16.77;10.27;;;;;;;18.97;84.12;101097.38;5068298;28;20461;-76
2022/06/30 07:04:50;;;;;;;16.75;9.63;;;;;;;19.00;83.21;101098.06;5070936;28;20035;-76
2022/06/30 07:07:16;;;;;;;17.75;9.15;;;;;;;19.05;83.45;101089.88;5074299;28;20489;-76
2022/06/30 07:09:41;;;;;;;18.42;10.27;;;;;;;19.15;83.79;101104.28;5073915;28;20024;-76
2022/06/30 07:12:07;;;;;;;15.73;8.75;;;;;;;19.17;84.01;101105.06;5066254;28;20484;-76
2022/06/30 07:14:33;;;;;;;13.50;9.02;;;;;;;19.28;82.50;101122.97;5073652;28;20036;-76
2022/06/30 07:16:58;;;;;;;16.92;9.95;;;;;;;19.28;80.51;101128.25;5073808;28;20021;-76
2022/06/30 07:19:23;;;;;;;15.43;9.20;;;;;;;19.28;82.99;101128.25;5073276;28;20050;-76
2022/06/30 07:21:48;;;;;;;15.15;8.38;;;;;;;19.30;82.06;101132.53;5067627;28;20028;-76
2022/06/30 07:24:14;;;;;;;13.32;8.07;;;;;;;19.38;83.60;101135.59;5070678;28;20190;-76
2022/06/30 07:26:39;;;;;;;13.50;8.18;;;;;;;19.43;82.31;101122.13;5073294;28;20028;-76
2022/06/30 07:29:05;;;;;;;14.15;8.80;;;;;;;19.49;80.30;101127.06;5073526;28;20025;-76
2022/06/30 07:31:30;;;;;;;11.10;7.88;;;;;;;19.55;81.50;101126.69;5070081;28;20039;-76
2022/06/30 07:33:56;;;;;;;15.90;7.45;;;;;;;19.57;81.50;101116.06;5071663;28;20033;-77
2022/06/30 07:36:21;;;;;;;10.25;6.88;;;;;;;19.66;79.67;101115.56;5067513;28;20053;-77
2022/06/30 07:38:47;;;;;;;12.98;7.05;;;;;;;19.79;79.72;101123.66;5071633;28;20491;-77
2022/06/30 07:41:12;;;;;;;13.68;6.72;;;;;;;19.85;80.15;101112.72;5063050;28;20480;-76
2022/06/30 07:43:38;;;;;;;11.07;6.63;;;;;;;19.99;78.62;101120.69;5070194;28;20028;-76
2022/06/30 07:46:04;;;;;;;13.20;6.85;;;;;;;20.11;78.43;101117.34;5069896;28;20034;-75
2022/06/30 07:48:29;;;;;;;15.07;7.30;;;;;;;20.19;76.82;101114.22;5070783;28;20099;-76
2022/06/30 07:50:55;;;;;;;12.68;6.53;;;;;;;20.23;77.80;101118.38;5067418;28;20423;-76
2022/06/30 07:53:20;;;;;;;8.90;5.72;;;;;;;20.22;77.67;101115.84;5066502;28;20039;-76
2022/06/30 07:55:45;;;;;;;12.73;5.57;;;;;;;20.16;78.63;101116.22;5076261;28;20108;-76
2022/06/30 07:58:11;;;;;;;8.50;5.32;;;;;;;20.24;74.45;101114.81;5073236;28;20089;-75
2022/06/30 08:00:36;;;;;;;10.48;5.30;;;;;;;20.34;75.66;101115.97;5079235;28;20114;-76
2022/06/30 08:03:02;;;;;;;8.82;5.35;;;;;;;20.41;74.44;101112.97;5073643;28;20099;-76
2022/06/30 08:05:27;;;;;;;9.95;5.45;;;;;;;20.50;74.43;101110.59;5072615;28;20611;-76
2022/06/30 08:07:53;;;;;;;9.90;5.38;;;;;;;20.56;72.27;101104.94;5053133;28;20033;-76
2022/06/30 08:10:18;;;;;;;13.70;6.05;;;;;;;20.65;70.42;101105.34;5052253;28;20108;-76
2022/06/30 08:12:44;;;;;;;8.73;4.95;;;;;;;20.73;73.22;101106.56;5050790;28;20487;-76
2022/06/30 08:15:09;;;;;;;9.20;4.60;;;;;;;20.75;74.66;101112.63;5050679;28;20021;-76
2022/06/30 08:17:35;;;;;;;8.88;5.20;;;;;;;20.83;69.79;101111.28;5050922;28;20040;-76
2022/06/30 08:20:00;;;;;;;8.50;5.13;;;;;;;20.90;69.79;101116.13;5050969;28;20544;-76
2022/06/30 08:22:26;;;;;;;10.57;5.38;;;;;;;20.97;68.43;101116.59;5051500;28;20028;-77
2022/06/30 08:24:52;;;;;;;7.47;4.63;;;;;;;21.05;71.57;101122.25;5059578;28;20028;-76
2022/06/30 08:27:17;;;;;;;11.85;4.43;;;;;;;21.20;71.02;101115.97;5062100;28;20191;-77
2022/06/30 08:29:42;;;;;;;11.10;5.15;;;;;;;21.24;69.38;101116.63;5051437;28;20064;-77
2022/06/30 08:32:08;;;;;;;12.35;4.70;;;;;;;21.36;70.46;101117.69;5055553;28;20051;-78
2022/06/30 08:34:33;;;;;;;12.07;5.60;;;;;;;21.33;68.16;101123.16;5057828;28;20024;-77
2022/06/30 08:36:59;;;;;;;10.70;4.88;;;;;;;21.39;69.04;101122.81;5062037;28;20029;-78
2022/06/30 08:42:11;;;;;;;9.75;4.38;;;;;;;21.70;73.03;101124.31;5051232;28;20039;-76
2022/06/30 08:44:37;;;;;;;6.00;4.28;;;;;;;21.80;68.44;101130.69;5061254;28;20464;-78
2022/06/30 08:47:04;;;;;;;9.60;4.05;;;;;;;21.95;72.51;101119.06;5063728;28;20035;-77
2022/06/30 08:49:31;;;;;;;10.07;4.80;;;;;;;22.07;67.50;101121.84;5051652;28;20384;-76
2022/06/30 08:51:58;;;;;;;7.07;4.40;;;;;;;22.08;66.66;101111.16;5066499;28;20025;-76
2022/06/30 08:54:26;;;;;;;9.32;4.30;;;;;;;22.11;67.45;101118.06;5072201;28;20024;-76
2022/06/30 08:56:53;;;;;;;10.98;5.60;;;;;;;22.15;65.23;101120.41;5070847;28;20495;-76
2022/06/30 08:59:20;;;;;;;8.60;3.60;;;;;;;22.37;66.65;101129.59;5067252;28;20024;-76
2022/06/30 09:01:46;;;;;;;8.48;5.00;;;;;;;22.46;64.71;101133.41;5068321;28;20081;-76
2022/06/30 09:04:11;;;;;;;9.63;4.10;;;;;;;22.57;66.10;101128.22;5070501;28;20032;-76
2022/06/30 09:06:37;;;;;;;10.38;4.53;;;;;;;22.63;63.30;101120.66;5069885;28;20025;-76
2022/06/30 09:09:04;;;;;;;7.85;3.92;;;;;;;22.69;64.60;101127.34;5069473;28;20484;-76
2022/06/30 09:11:50;;;;;;;8.50;4.18;;;;;;;22.84;64.31;101128.09;5055314;28;20036;-75
2022/06/30 09:14:41;;;;;;;7.82;4.00;;;;;;;22.89;62.64;101128.63;5071764;28;20027;-76
2022/06/30 09:17:28;;;;;;;7.88;4.00;;;;;;;22.91;62.53;101127.53;5071100;28;20032;-75
2022/06/30 09:19:58;;;;;;;7.00;4.05;;;;;;;22.77;62.53;101135.66;5065835;28;20040;-76
2022/06/30 09:22:32;;;;;;;7.85;4.18;;;;;;;22.65;61.53;101137.34;5062131;28;20033;-75
2022/06/30 09:25:08;;;;;;;7.97;3.83;;;;;;;22.71;64.35;101128.09;5070843;28;20023;-75
2022/06/30 09:27:38;;;;;;;7.68;4.05;;;;;;;22.91;62.22;101127.53;5064671;28;20072;-76
2022/06/30 09:30:09;;;;;;;7.35;4.35;;;;;;;23.00;59.36;101128.75;5066974;28;20033;-75
2022/06/30 09:32:57;;;;;;;10.10;3.60;;;;;;;23.16;63.69;101120.53;5064223;28;20028;-76
2022/06/30 09:35:27;;;;;;;6.47;3.47;;;;;;;23.42;63.26;101129.28;5084338;28;20017;-77
2022/06/30 09:38:01;;;;;;;5.93;3.60;;;;;;;23.72;61.25;101128.84;5064009;28;20035;-77
2022/06/30 09:40:37;;;;;;;6.20;3.13;;;;;;;24.21;59.95;101132.31;5070109;28;20484;-76
2022/06/30 09:43:04;;;;;;;5.90;3.60;;;;;;;24.43;55.75;101131.53;5061745;28;20074;-77
2022/06/30 09:45:41;;;;;;;8.77;3.47;;;;;;;24.57;57.91;101128.66;5070485;28;20052;-77
2022/06/30 09:48:08;;;;;;;8.95;3.53;;;;;;;24.68;56.08;101125.13;5061076;28;20475;-76
2022/06/30 09:50:34;;;;;;;6.80;2.90;;;;;;;24.57;56.36;101130.47;5054767;28;20504;-76
2022/06/30 09:53:14;;;;;;;5.78;3.55;;;;;;;24.38;56.29;101131.84;5060896;28;20028;-76
2022/06/30 09:55:42;;;;;;;5.72;4.25;;;;;;;24.24;54.15;101132.91;5068432;28;20029;-76
2022/06/30 09:58:08;;;;;;;8.63;4.22;;;;;;;24.29;55.34;101124.56;5070509;28;20024;-76
2022/06/30 10:00:53;;;;;;;8.20;3.35;;;;;;;24.61;56.86;101137.25;5074167;28;20027;-76
2022/06/30 10:03:19;;;;;;;9.48;3.13;;;;;;;24.79;58.22;101129.63;5066087;28;20040;-77
2022/06/30 10:05:47;;;;;;;5.05;2.80;;;;;;;25.12;57.32;101134.16;5078862;28;20055;-76
2022/06/30 10:08:14;;;;;;;10.00;3.75;;;;;;;25.38;54.64;101135.56;5074134;28;20027;-76
2022/06/30 10:10:41;;;;;;;8.18;3.78;;;;;;;25.54;53.78;101139.63;5072629;28;20033;-76
2022/06/30 10:13:13;;;;;;;6.55;2.83;;;;;;;25.80;54.40;101134.78;5074156;28;20013;-76
2022/06/30 10:15:40;;;;;;;6.72;3.83;;;;;;;26.01;49.88;101140.22;5074509;28;20534;-76
2022/06/30 10:18:07;;;;;;;9.23;3.05;;;;;;;26.25;52.03;101146.16;5074808;28;20028;-76
2022/06/30 10:20:38;;;;;;;7.43;2.75;;;;;;;26.47;50.77;101133.63;5073138;28;20031;-76
2022/06/30 10:23:04;;;;;;;8.07;3.90;;;;;;;26.63;47.92;101128.69;5075043;28;20024;-76
2022/06/30 10:25:29;;;;;;;7.40;2.80;;;;;;;26.70;52.68;101124.50;5074957;28;20021;-76
2022/06/30 10:27:56;;;;;;;6.65;3.08;;;;;;;26.84;50.30;101121.44;5073536;28;20119;-76
2022/06/30 10:30:26;;;;;;;7.97;3.80;;;;;;;26.69;49.40;101124.66;5074372;28;20056;-76
2022/06/30 10:32:55;;;;;;;4.32;2.72;;;;;;;26.44;52.37;101126.72;5075262;28;20024;-76
2022/06/30 10:35:42;;;;;;;10.63;4.50;;;;;;;26.26;50.33;101126.50;5074102;28;20056;-76
2022/06/30 10:38:13;;;;;;;7.40;3.10;;;;;;;26.15;53.72;101126.53;5073767;28;20115;-76
2022/06/30 10:41:00;;;;;;;7.15;3.83;;;;;;;26.17;50.32;101140.63;5080290;28;20074;-76
2022/06/30 10:43:26;;;;;;;9.93;4.10;;;;;;;26.09;51.32;101132.41;5069066;28;20491;-77
2022/06/30 10:45:59;;;;;;;9.18;3.83;;;;;;;26.33;52.91;101132.16;5074127;28;20020;-77
2022/06/30 10:48:27;;;;;;;10.23;3.90;;;;;;;26.55;50.31;101131.16;5068783;28;20490;-77
2022/06/30 10:50:56;;;;;;;4.65;2.75;;;;;;;26.73;51.33;101128.75;5064410;28;20036;-76
2022/06/30 10:53:41;;;;;;;5.15;3.20;;;;;;;27.13;50.81;101125.22;5069722;28;20029;-76
2022/06/30 10:56:07;;;;;;;7.50;2.95;;;;;;;27.21;48.75;101112.06;5070531;28;20083;-77
2022/06/30 10:58:32;;;;;;;4.35;2.70;;;;;;;27.21;50.10;101114.72;5074524;28;20048;-77
2022/06/30 11:01:05;;;;;;;5.35;2.60;;;;;;;27.32;49.20;101125.31;5073930;28;20036;-78
2022/06/30 11:03:34;;;;;;;7.50;3.45;;;;;;;27.36;48.32;101128.53;5073441;28;20470;-77
2022/06/30 11:06:05;;;;;;;9.27;3.55;;;;;;;27.35;48.54;101132.22;5073899;28;20024;-77
2022/06/30 11:08:39;;;;;;;7.63;2.63;;;;;;;27.25;50.07;101125.00;5066060;28;20106;-78
2022/06/30 11:11:20;;;;;;;7.88;3.00;;;;;;;27.28;49.73;101122.06;5065437;28;20489;-78
2022/06/30 11:13:47;;;;;;;9.88;2.90;;;;;;;27.75;49.24;101118.72;5073586;28;20028;-78
2022/06/30 11:16:19;;;;;;;5.38;2.95;;;;;;;27.83;47.54;101121.59;5071225;28;20029;-78
2022/06/30 11:18:46;;;;;;;5.93;2.67;;;;;;;27.67;47.54;101114.06;5071594;28;20028;-78
2022/06/30 11:21:12;;;;;;;6.15;3.00;;;;;;;27.65;45.73;101104.50;5071516;28;20413;-77
2022/06/30 11:23:48;;;;;;;6.75;2.47;;;;;;;27.86;47.85;101099.88;5071329;28;20082;-77
2022/06/30 11:29:03;;;;;;;6.15;2.90;;;;;;;28.27;46.18;101105.88;5071253;28;20104;-77
2022/06/30 11:31:36;;;;;;;7.57;3.00;;;;;;;28.05;46.06;101101.66;5072957;28;20472;-77
2022/06/30 11:34:05;;;;;;;4.65;2.83;;;;;;;27.51;47.02;101103.91;5063662;28;20029;-78